sensor_id;sensor_type;location;lat;lon;timestamp;P1;durP1;ratioP1;P2;durP2;ratioP2
82328;SDS011;72321;56.908;60.608;2023-09-19T00:02:12;16.10;;;5.47;;
82328;SDS011;72321;56.908;60.608;2023-09-19T00:04:37;11.15;;;5.70;;
82328;SDS011;72321;56.908;60.608;2023-09-19T00:07:05;6.95;;;4.65;;
82328;SDS011;72321;56.908;60.608;2023-09-19T00:09:30;10.35;;;5.82;;
82328;SDS011;72321;56.908;60.608;2023-09-19T00:12:02;6.07;;;4.22;;
82328;SDS011;72321;56.908;60.608;2023-09-19T00:14:27;7.00;;;4.60;;
82328;SDS011;72321;56.908;60.608;2023-09-19T00:16:53;10.85;;;5.72;;
82328;SDS011;72321;56.908;60.608;2023-09-19T00:19:19;9.93;;;5.97;;
82328;SDS011;72321;56.908;60.608;2023-09-19T00:21:45;9.43;;;6.15;;
82328;SDS011;72321;56.908;60.608;2023-09-19T00:24:12;8.80;;;5.68;;
82328;SDS011;72321;56.908;60.608;2023-09-19T00:26:38;8.32;;;4.53;;
82328;SDS011;72321;56.908;60.608;2023-09-19T00:29:03;10.07;;;4.75;;
82328;SDS011;72321;56.908;60.608;2023-09-19T00:31:29;7.78;;;5.22;;
82328;SDS011;72321;56.908;60.608;2023-09-19T00:33:55;9.93;;;5.50;;
82328;SDS011;72321;56.908;60.608;2023-09-19T00:36:22;7.40;;;4.88;;
82328;SDS011;72321;56.908;60.608;2023-09-19T00:38:48;11.65;;;5.53;;
82328;SDS011;72321;56.908;60.608;2023-09-19T00:41:13;7.78;;;4.57;;
82328;SDS011;72321;56.908;60.608;2023-09-19T00:43:39;11.10;;;5.82;;
82328;SDS011;72321;56.908;60.608;2023-09-19T00:46:05;9.60;;;4.95;;
82328;SDS011;72321;56.908;60.608;2023-09-19T00:48:31;7.95;;;5.20;;
82328;SDS011;72321;56.908;60.608;2023-09-19T00:50:58;12.13;;;5.43;;
82328;SDS011;72321;56.908;60.608;2023-09-19T00:53:27;10.63;;;5.78;;
82328;SDS011;72321;56.908;60.608;2023-09-19T00:55:52;15.80;;;6.25;;
82328;SDS011;72321;56.908;60.608;2023-09-19T00:58:18;15.15;;;6.10;;
82328;SDS011;72321;56.908;60.608;2023-09-19T01:00:43;12.40;;;5.53;;
82328;SDS011;72321;56.908;60.608;2023-09-19T01:03:09;14.18;;;5.80;;
82328;SDS011;72321;56.908;60.608;2023-09-19T01:05:35;13.00;;;5.75;;
82328;SDS011;72321;56.908;60.608;2023-09-19T01:08:01;11.50;;;6.00;;
82328;SDS011;72321;56.908;60.608;2023-09-19T01:10:26;9.45;;;5.68;;
82328;SDS011;72321;56.908;60.608;2023-09-19T01:13:05;13.02;;;5.78;;
82328;SDS011;72321;56.908;60.608;2023-09-19T01:31:34;10.95;;;5.30;;
82328;SDS011;72321;56.908;60.608;2023-09-19T01:34:02;14.38;;;6.13;;
82328;SDS011;72321;56.908;60.608;2023-09-19T01:36:33;13.93;;;6.25;;
82328;SDS011;72321;56.908;60.608;2023-09-19T01:39:05;16.02;;;6.35;;
82328;SDS011;72321;56.908;60.608;2023-09-19T01:41:41;13.82;;;5.85;;
82328;SDS011;72321;56.908;60.608;2023-09-19T01:44:11;13.07;;;5.57;;
82328;SDS011;72321;56.908;60.608;2023-09-19T01:46:41;9.35;;;5.75;;
82328;SDS011;72321;56.908;60.608;2023-09-19T01:51:34;11.35;;;6.25;;
82328;SDS011;72321;56.908;60.608;2023-09-19T01:54:03;10.07;;;6.22;;
82328;SDS011;72321;56.908;60.608;2023-09-19T01:56:34;21.00;;;6.22;;
82328;SDS011;72321;56.908;60.608;2023-09-19T01:59:04;11.00;;;5.65;;
82328;SDS011;72321;56.908;60.608;2023-09-19T02:01:31;13.20;;;5.97;;
82328;SDS011;72321;56.908;60.608;2023-09-19T02:03:56;9.13;;;5.80;;
82328;SDS011;72321;56.908;60.608;2023-09-19T02:06:23;10.95;;;5.35;;
82328;SDS011;72321;56.908;60.608;2023-09-19T02:08:50;14.00;;;5.43;;
82328;SDS011;72321;56.908;60.608;2023-09-19T02:11:15;7.88;;;5.13;;
82328;SDS011;72321;56.908;60.608;2023-09-19T02:13:41;6.80;;;4.68;;
82328;SDS011;72321;56.908;60.608;2023-09-19T02:16:06;11.32;;;5.07;;
82328;SDS011;72321;56.908;60.608;2023-09-19T02:18:34;11.10;;;5.85;;
82328;SDS011;72321;56.908;60.608;2023-09-19T02:21:02;9.05;;;5.00;;
82328;SDS011;72321;56.908;60.608;2023-09-19T02:23:29;7.03;;;5.30;;
82328;SDS011;72321;56.908;60.608;2023-09-19T02:25:55;11.52;;;6.15;;
82328;SDS011;72321;56.908;60.608;2023-09-19T02:28:22;10.32;;;5.03;;
82328;SDS011;72321;56.908;60.608;2023-09-19T02:30:47;9.52;;;5.35;;
82328;SDS011;72321;56.908;60.608;2023-09-19T02:33:14;8.18;;;5.65;;
82328;SDS011;72321;56.908;60.608;2023-09-19T02:35:39;8.65;;;5.30;;
82328;SDS011;72321;56.908;60.608;2023-09-19T02:38:04;11.10;;;5.18;;
82328;SDS011;72321;56.908;60.608;2023-09-19T02:40:31;9.27;;;5.75;;
82328;SDS011;72321;56.908;60.608;2023-09-19T02:42:57;10.25;;;6.10;;
82328;SDS011;72321;56.908;60.608;2023-09-19T02:45:24;8.07;;;5.32;;
82328;SDS011;72321;56.908;60.608;2023-09-19T02:47:50;9.40;;;5.55;;
82328;SDS011;72321;56.908;60.608;2023-09-19T02:50:15;9.85;;;6.00;;
82328;SDS011;72321;56.908;60.608;2023-09-19T02:52:41;11.80;;;6.07;;
82328;SDS011;72321;56.908;60.608;2023-09-19T02:55:09;16.95;;;6.85;;
82328;SDS011;72321;56.908;60.608;2023-09-19T02:57:35;11.00;;;6.10;;
82328;SDS011;72321;56.908;60.608;2023-09-19T03:00:01;11.80;;;6.35;;
82328;SDS011;72321;56.908;60.608;2023-09-19T03:02:27;17.45;;;6.40;;
82328;SDS011;72321;56.908;60.608;2023-09-19T03:04:53;12.07;;;4.88;;
82328;SDS011;72321;56.908;60.608;2023-09-19T03:07:18;11.40;;;5.50;;
82328;SDS011;72321;56.908;60.608;2023-09-19T03:09:44;17.50;;;5.15;;
82328;SDS011;72321;56.908;60.608;2023-09-19T03:12:10;11.05;;;6.07;;
82328;SDS011;72321;56.908;60.608;2023-09-19T03:14:35;15.15;;;5.75;;
82328;SDS011;72321;56.908;60.608;2023-09-19T03:17:01;10.05;;;5.57;;
82328;SDS011;72321;56.908;60.608;2023-09-19T03:19:29;13.55;;;5.75;;
82328;SDS011;72321;56.908;60.608;2023-09-19T03:21:55;11.02;;;6.07;;
82328;SDS011;72321;56.908;60.608;2023-09-19T03:24:22;9.18;;;5.55;;
82328;SDS011;72321;56.908;60.608;2023-09-19T03:26:48;8.00;;;5.40;;
82328;SDS011;72321;56.908;60.608;2023-09-19T03:29:14;11.32;;;6.45;;
82328;SDS011;72321;56.908;60.608;2023-09-19T03:31:39;14.18;;;7.45;;
82328;SDS011;72321;56.908;60.608;2023-09-19T03:34:05;13.02;;;7.20;;
82328;SDS011;72321;56.908;60.608;2023-09-19T03:36:30;10.75;;;5.75;;
82328;SDS011;72321;56.908;60.608;2023-09-19T03:38:55;16.80;;;6.20;;
82328;SDS011;72321;56.908;60.608;2023-09-19T03:41:21;12.85;;;5.20;;
82328;SDS011;72321;56.908;60.608;2023-09-19T03:43:46;11.38;;;6.63;;
82328;SDS011;72321;56.908;60.608;2023-09-19T03:46:12;10.73;;;5.78;;
82328;SDS011;72321;56.908;60.608;2023-09-19T03:48:40;10.70;;;4.93;;
82328;SDS011;72321;56.908;60.608;2023-09-19T03:51:05;8.65;;;4.90;;
82328;SDS011;72321;56.908;60.608;2023-09-19T03:53:30;7.97;;;4.95;;
82328;SDS011;72321;56.908;60.608;2023-09-19T03:55:56;10.75;;;5.10;;
82328;SDS011;72321;56.908;60.608;2023-09-19T03:58:22;7.85;;;5.00;;
82328;SDS011;72321;56.908;60.608;2023-09-19T04:00:47;7.07;;;4.30;;
82328;SDS011;72321;56.908;60.608;2023-09-19T04:03:14;7.18;;;4.78;;
82328;SDS011;72321;56.908;60.608;2023-09-19T04:05:45;7.70;;;3.72;;
82328;SDS011;72321;56.908;60.608;2023-09-19T04:10:37;11.00;;;4.70;;
82328;SDS011;72321;56.908;60.608;2023-09-19T04:13:02;7.35;;;3.97;;
82328;SDS011;72321;56.908;60.608;2023-09-19T04:15:29;20.77;;;5.32;;
82328;SDS011;72321;56.908;60.608;2023-09-19T04:17:54;11.02;;;5.70;;
82328;SDS011;72321;56.908;60.608;2023-09-19T04:20:20;10.48;;;4.82;;
82328;SDS011;72321;56.908;60.608;2023-09-19T04:22:47;7.22;;;3.90;;
82328;SDS011;72321;56.908;60.608;2023-09-19T04:25:12;7.32;;;4.20;;
82328;SDS011;72321;56.908;60.608;2023-09-19T04:27:38;7.28;;;3.88;;
82328;SDS011;72321;56.908;60.608;2023-09-19T04:30:04;12.10;;;4.63;;
82328;SDS011;72321;56.908;60.608;2023-09-19T04:32:35;19.48;;;4.82;;
82328;SDS011;72321;56.908;60.608;2023-09-19T04:35:01;8.23;;;4.30;;
82328;SDS011;72321;56.908;60.608;2023-09-19T04:37:30;7.60;;;3.75;;
82328;SDS011;72321;56.908;60.608;2023-09-19T04:39:55;8.63;;;4.13;;
82328;SDS011;72321;56.908;60.608;2023-09-19T04:42:21;7.35;;;3.90;;
82328;SDS011;72321;56.908;60.608;2023-09-19T04:44:50;8.55;;;4.22;;
82328;SDS011;72321;56.908;60.608;2023-09-19T04:47:18;8.32;;;4.15;;
82328;SDS011;72321;56.908;60.608;2023-09-19T04:49:44;10.10;;;3.63;;
82328;SDS011;72321;56.908;60.608;2023-09-19T04:52:09;8.27;;;3.80;;
82328;SDS011;72321;56.908;60.608;2023-09-19T04:54:34;9.95;;;4.25;;
82328;SDS011;72321;56.908;60.608;2023-09-19T04:57:00;10.50;;;3.95;;
82328;SDS011;72321;56.908;60.608;2023-09-19T04:59:26;10.68;;;3.55;;
82328;SDS011;72321;56.908;60.608;2023-09-19T05:01:52;5.63;;;3.55;;
82328;SDS011;72321;56.908;60.608;2023-09-19T05:04:18;6.80;;;3.15;;
82328;SDS011;72321;56.908;60.608;2023-09-19T05:06:43;8.57;;;4.20;;
82328;SDS011;72321;56.908;60.608;2023-09-19T05:09:08;8.35;;;3.88;;
82328;SDS011;72321;56.908;60.608;2023-09-19T05:11:35;9.63;;;3.45;;
82328;SDS011;72321;56.908;60.608;2023-09-19T05:14:01;7.35;;;3.00;;
82328;SDS011;72321;56.908;60.608;2023-09-19T05:16:29;7.10;;;2.90;;
82328;SDS011;72321;56.908;60.608;2023-09-19T05:18:56;8.27;;;3.30;;
82328;SDS011;72321;56.908;60.608;2023-09-19T05:21:23;5.53;;;3.33;;
82328;SDS011;72321;56.908;60.608;2023-09-19T05:23:51;4.93;;;3.00;;
82328;SDS011;72321;56.908;60.608;2023-09-19T05:26:16;11.15;;;3.90;;
82328;SDS011;72321;56.908;60.608;2023-09-19T05:28:41;11.00;;;3.40;;
82328;SDS011;72321;56.908;60.608;2023-09-19T05:31:08;26.60;;;3.58;;
82328;SDS011;72321;56.908;60.608;2023-09-19T05:33:33;5.55;;;2.50;;
82328;SDS011;72321;56.908;60.608;2023-09-19T05:35:59;9.13;;;2.53;;
82328;SDS011;72321;56.908;60.608;2023-09-19T05:38:24;7.18;;;2.42;;
82328;SDS011;72321;56.908;60.608;2023-09-19T05:40:52;6.13;;;2.30;;
82328;SDS011;72321;56.908;60.608;2023-09-19T05:43:17;7.00;;;2.97;;
82328;SDS011;72321;56.908;60.608;2023-09-19T05:45:44;6.03;;;2.88;;
82328;SDS011;72321;56.908;60.608;2023-09-19T05:48:13;5.43;;;2.78;;
82328;SDS011;72321;56.908;60.608;2023-09-19T05:50:41;6.50;;;2.75;;
82328;SDS011;72321;56.908;60.608;2023-09-19T05:53:07;5.78;;;2.50;;
82328;SDS011;72321;56.908;60.608;2023-09-19T05:55:33;7.93;;;2.90;;
82328;SDS011;72321;56.908;60.608;2023-09-19T05:57:58;10.82;;;2.50;;
82328;SDS011;72321;56.908;60.608;2023-09-19T06:00:24;3.58;;;2.08;;
82328;SDS011;72321;56.908;60.608;2023-09-19T06:05:15;20.37;;;3.10;;
82328;SDS011;72321;56.908;60.608;2023-09-19T06:10:05;9.17;;;3.20;;
82328;SDS011;72321;56.908;60.608;2023-09-19T06:12:32;5.78;;;2.42;;
82328;SDS011;72321;56.908;60.608;2023-09-19T06:15:02;11.38;;;2.60;;
82328;SDS011;72321;56.908;60.608;2023-09-19T06:17:28;11.25;;;2.97;;
82328;SDS011;72321;56.908;60.608;2023-09-19T06:19:53;4.15;;;2.50;;
82328;SDS011;72321;56.908;60.608;2023-09-19T06:22:20;5.50;;;2.20;;
82328;SDS011;72321;56.908;60.608;2023-09-19T06:24:46;7.03;;;2.17;;
82328;SDS011;72321;56.908;60.608;2023-09-19T06:27:12;4.03;;;2.25;;
82328;SDS011;72321;56.908;60.608;2023-09-19T06:29:38;8.13;;;4.00;;
82328;SDS011;72321;56.908;60.608;2023-09-19T06:32:10;6.43;;;3.40;;
82328;SDS011;72321;56.908;60.608;2023-09-19T06:34:35;8.15;;;3.65;;
82328;SDS011;72321;56.908;60.608;2023-09-19T06:37:02;8.60;;;3.95;;
82328;SDS011;72321;56.908;60.608;2023-09-19T06:39:28;9.05;;;3.85;;
82328;SDS011;72321;56.908;60.608;2023-09-19T06:41:53;5.73;;;2.80;;
82328;SDS011;72321;56.908;60.608;2023-09-19T06:44:19;4.85;;;2.80;;
82328;SDS011;72321;56.908;60.608;2023-09-19T06:46:46;11.85;;;3.45;;
82328;SDS011;72321;56.908;60.608;2023-09-19T06:49:16;5.78;;;3.13;;
82328;SDS011;72321;56.908;60.608;2023-09-19T06:51:41;9.45;;;3.20;;
82328;SDS011;72321;56.908;60.608;2023-09-19T06:54:08;5.65;;;2.60;;
82328;SDS011;72321;56.908;60.608;2023-09-19T06:56:33;4.47;;;2.75;;
82328;SDS011;72321;56.908;60.608;2023-09-19T06:58:59;4.38;;;2.72;;
82328;SDS011;72321;56.908;60.608;2023-09-19T07:01:24;4.45;;;2.30;;
82328;SDS011;72321;56.908;60.608;2023-09-19T07:03:50;5.95;;;3.30;;
82328;SDS011;72321;56.908;60.608;2023-09-19T07:06:15;10.05;;;3.58;;
82328;SDS011;72321;56.908;60.608;2023-09-19T07:08:41;8.00;;;2.80;;
82328;SDS011;72321;56.908;60.608;2023-09-19T07:11:06;5.40;;;2.60;;
82328;SDS011;72321;56.908;60.608;2023-09-19T07:13:31;4.85;;;2.33;;
82328;SDS011;72321;56.908;60.608;2023-09-19T07:15:58;8.35;;;2.33;;
82328;SDS011;72321;56.908;60.608;2023-09-19T07:18:24;7.70;;;2.70;;
82328;SDS011;72321;56.908;60.608;2023-09-19T07:20:50;9.75;;;2.65;;
82328;SDS011;72321;56.908;60.608;2023-09-19T07:23:16;7.97;;;2.38;;
82328;SDS011;72321;56.908;60.608;2023-09-19T07:25:43;6.63;;;2.00;;
82328;SDS011;72321;56.908;60.608;2023-09-19T07:28:08;4.60;;;2.05;;
82328;SDS011;72321;56.908;60.608;2023-09-19T07:30:35;4.32;;;2.45;;
82328;SDS011;72321;56.908;60.608;2023-09-19T07:33:02;25.77;;;3.35;;
82328;SDS011;72321;56.908;60.608;2023-09-19T07:35:29;5.82;;;2.70;;
82328;SDS011;72321;56.908;60.608;2023-09-19T07:37:54;5.00;;;2.67;;
82328;SDS011;72321;56.908;60.608;2023-09-19T07:40:21;18.92;;;3.10;;
82328;SDS011;72321;56.908;60.608;2023-09-19T07:42:48;9.02;;;3.30;;
82328;SDS011;72321;56.908;60.608;2023-09-19T07:45:14;5.88;;;2.78;;
82328;SDS011;72321;56.908;60.608;2023-09-19T07:47:45;6.32;;;3.13;;
82328;SDS011;72321;56.908;60.608;2023-09-19T07:50:12;8.75;;;4.07;;
82328;SDS011;72321;56.908;60.608;2023-09-19T07:52:37;7.82;;;4.63;;
82328;SDS011;72321;56.908;60.608;2023-09-19T07:55:05;10.13;;;4.38;;
82328;SDS011;72321;56.908;60.608;2023-09-19T07:57:33;6.47;;;2.85;;
82328;SDS011;72321;56.908;60.608;2023-09-19T07:59:59;8.52;;;3.22;;
82328;SDS011;72321;56.908;60.608;2023-09-19T08:02:25;11.18;;;5.20;;
82328;SDS011;72321;56.908;60.608;2023-09-19T08:04:50;6.40;;;4.10;;
82328;SDS011;72321;56.908;60.608;2023-09-19T08:07:17;7.47;;;3.95;;
82328;SDS011;72321;56.908;60.608;2023-09-19T08:09:43;10.32;;;3.65;;
82328;SDS011;72321;56.908;60.608;2023-09-19T08:12:13;6.68;;;3.63;;
82328;SDS011;72321;56.908;60.608;2023-09-19T08:14:40;7.00;;;3.08;;
82328;SDS011;72321;56.908;60.608;2023-09-19T08:17:06;8.57;;;3.50;;
82328;SDS011;72321;56.908;60.608;2023-09-19T08:19:33;26.08;;;4.32;;
82328;SDS011;72321;56.908;60.608;2023-09-19T08:21:58;7.47;;;3.25;;
82328;SDS011;72321;56.908;60.608;2023-09-19T08:24:27;4.95;;;1.92;;
82328;SDS011;72321;56.908;60.608;2023-09-19T08:26:54;4.25;;;2.58;;
82328;SDS011;72321;56.908;60.608;2023-09-19T08:29:19;4.97;;;2.20;;
82328;SDS011;72321;56.908;60.608;2023-09-19T08:31:45;7.10;;;2.05;;
82328;SDS011;72321;56.908;60.608;2023-09-19T08:34:12;6.03;;;1.83;;
82328;SDS011;72321;56.908;60.608;2023-09-19T08:36:37;4.80;;;1.80;;
82328;SDS011;72321;56.908;60.608;2023-09-19T08:39:04;4.95;;;2.05;;
82328;SDS011;72321;56.908;60.608;2023-09-19T08:41:29;3.95;;;1.70;;
82328;SDS011;72321;56.908;60.608;2023-09-19T08:43:58;4.75;;;2.13;;
82328;SDS011;72321;56.908;60.608;2023-09-19T08:46:26;5.18;;;2.30;;
82328;SDS011;72321;56.908;60.608;2023-09-19T08:48:58;3.60;;;1.60;;
82328;SDS011;72321;56.908;60.608;2023-09-19T08:51:27;2.95;;;1.60;;
82328;SDS011;72321;56.908;60.608;2023-09-19T08:54:02;5.20;;;1.75;;
82328;SDS011;72321;56.908;60.608;2023-09-19T08:56:29;3.42;;;1.75;;
82328;SDS011;72321;56.908;60.608;2023-09-19T08:58:59;4.53;;;1.85;;
82328;SDS011;72321;56.908;60.608;2023-09-19T09:01:28;3.75;;;2.17;;
82328;SDS011;72321;56.908;60.608;2023-09-19T09:03:55;5.35;;;1.90;;
82328;SDS011;72321;56.908;60.608;2023-09-19T09:06:20;5.00;;;2.38;;
82328;SDS011;72321;56.908;60.608;2023-09-19T09:08:46;3.30;;;2.05;;
82328;SDS011;72321;56.908;60.608;2023-09-19T09:11:12;4.65;;;2.13;;
82328;SDS011;72321;56.908;60.608;2023-09-19T09:13:38;7.65;;;1.98;;
82328;SDS011;72321;56.908;60.608;2023-09-19T09:16:07;5.38;;;3.08;;
82328;SDS011;72321;56.908;60.608;2023-09-19T09:18:32;6.25;;;2.40;;
82328;SDS011;72321;56.908;60.608;2023-09-19T09:20:58;4.85;;;2.30;;
82328;SDS011;72321;56.908;60.608;2023-09-19T09:23:23;4.40;;;2.05;;
82328;SDS011;72321;56.908;60.608;2023-09-19T09:25:51;4.95;;;2.33;;
82328;SDS011;72321;56.908;60.608;2023-09-19T09:28:24;5.53;;;2.85;;
82328;SDS011;72321;56.908;60.608;2023-09-19T09:30:50;4.13;;;2.28;;
82328;SDS011;72321;56.908;60.608;2023-09-19T09:33:16;7.00;;;2.40;;
82328;SDS011;72321;56.908;60.608;2023-09-19T09:35:48;7.80;;;2.78;;
82328;SDS011;72321;56.908;60.608;2023-09-19T09:38:17;10.38;;;2.22;;
82328;SDS011;72321;56.908;60.608;2023-09-19T09:40:47;5.70;;;1.90;;
82328;SDS011;72321;56.908;60.608;2023-09-19T09:43:30;4.03;;;2.58;;
82328;SDS011;72321;56.908;60.608;2023-09-19T09:46:06;6.00;;;3.05;;
82328;SDS011;72321;56.908;60.608;2023-09-19T09:48:37;5.53;;;2.30;;
82328;SDS011;72321;56.908;60.608;2023-09-19T09:51:04;6.38;;;2.10;;
82328;SDS011;72321;56.908;60.608;2023-09-19T09:53:33;5.30;;;2.03;;
82328;SDS011;72321;56.908;60.608;2023-09-19T09:56:02;6.78;;;2.08;;
82328;SDS011;72321;56.908;60.608;2023-09-19T09:58:34;4.07;;;2.00;;
82328;SDS011;72321;56.908;60.608;2023-09-19T10:01:00;4.95;;;2.30;;
82328;SDS011;72321;56.908;60.608;2023-09-19T10:03:34;4.63;;;1.75;;
82328;SDS011;72321;56.908;60.608;2023-09-19T10:06:05;45.10;;;3.70;;
82328;SDS011;72321;56.908;60.608;2023-09-19T10:08:57;5.40;;;1.25;;
82328;SDS011;72321;56.908;60.608;2023-09-19T10:11:26;4.38;;;1.60;;
82328;SDS011;72321;56.908;60.608;2023-09-19T10:13:55;2.75;;;1.30;;
82328;SDS011;72321;56.908;60.608;2023-09-19T10:16:20;3.45;;;1.23;;
82328;SDS011;72321;56.908;60.608;2023-09-19T10:18:47;4.63;;;1.30;;
82328;SDS011;72321;56.908;60.608;2023-09-19T10:21:17;2.38;;;1.13;;
82328;SDS011;72321;56.908;60.608;2023-09-19T10:23:48;3.10;;;1.50;;
82328;SDS011;72321;56.908;60.608;2023-09-19T10:26:16;5.60;;;1.50;;
82328;SDS011;72321;56.908;60.608;2023-09-19T10:28:42;6.35;;;1.40;;
82328;SDS011;72321;56.908;60.608;2023-09-19T10:31:07;2.95;;;1.27;;
82328;SDS011;72321;56.908;60.608;2023-09-19T10:33:35;2.92;;;1.40;;
82328;SDS011;72321;56.908;60.608;2023-09-19T10:36:02;3.97;;;1.45;;
82328;SDS011;72321;56.908;60.608;2023-09-19T10:38:30;3.92;;;1.65;;
82328;SDS011;72321;56.908;60.608;2023-09-19T10:40:58;2.95;;;1.05;;
82328;SDS011;72321;56.908;60.608;2023-09-19T10:43:29;2.78;;;1.15;;
82328;SDS011;72321;56.908;60.608;2023-09-19T10:45:56;1.90;;;0.95;;
82328;SDS011;72321;56.908;60.608;2023-09-19T10:48:22;2.70;;;1.30;;
82328;SDS011;72321;56.908;60.608;2023-09-19T10:50:57;2.85;;;1.27;;
82328;SDS011;72321;56.908;60.608;2023-09-19T10:53:24;2.22;;;0.93;;
82328;SDS011;72321;56.908;60.608;2023-09-19T10:55:52;4.57;;;1.60;;
82328;SDS011;72321;56.908;60.608;2023-09-19T10:58:26;3.17;;;1.58;;
82328;SDS011;72321;56.908;60.608;2023-09-19T11:00:54;2.55;;;1.00;;
82328;SDS011;72321;56.908;60.608;2023-09-19T11:03:20;3.88;;;1.58;;
82328;SDS011;72321;56.908;60.608;2023-09-19T11:14:16;4.07;;;1.20;;
82328;SDS011;72321;56.908;60.608;2023-09-19T11:22:18;3.83;;;1.70;;
82328;SDS011;72321;56.908;60.608;2023-09-19T11:24:44;2.33;;;1.10;;
82328;SDS011;72321;56.908;60.608;2023-09-19T11:27:11;2.33;;;1.23;;
82328;SDS011;72321;56.908;60.608;2023-09-19T11:29:39;3.10;;;0.90;;
82328;SDS011;72321;56.908;60.608;2023-09-19T11:32:05;3.63;;;1.40;;
82328;SDS011;72321;56.908;60.608;2023-09-19T11:39:39;3.03;;;1.13;;
82328;SDS011;72321;56.908;60.608;2023-09-19T11:44:52;2.20;;;1.17;;
82328;SDS011;72321;56.908;60.608;2023-09-19T11:47:21;3.28;;;1.20;;
82328;SDS011;72321;56.908;60.608;2023-09-19T11:49:47;3.15;;;1.30;;
82328;SDS011;72321;56.908;60.608;2023-09-19T11:52:18;3.08;;;1.67;;
82328;SDS011;72321;56.908;60.608;2023-09-19T11:54:47;3.15;;;1.00;;
82328;SDS011;72321;56.908;60.608;2023-09-19T11:57:22;2.75;;;1.05;;
82328;SDS011;72321;56.908;60.608;2023-09-19T11:59:47;4.68;;;2.03;;
82328;SDS011;72321;56.908;60.608;2023-09-19T12:02:14;4.35;;;1.30;;
82328;SDS011;72321;56.908;60.608;2023-09-19T12:04:43;21.95;;;6.85;;
82328;SDS011;72321;56.908;60.608;2023-09-19T12:07:11;3.20;;;1.35;;
82328;SDS011;72321;56.908;60.608;2023-09-19T12:09:40;25.05;;;2.83;;
82328;SDS011;72321;56.908;60.608;2023-09-19T12:12:09;3.28;;;1.40;;
82328;SDS011;72321;56.908;60.608;2023-09-19T12:14:34;4.70;;;1.27;;
82328;SDS011;72321;56.908;60.608;2023-09-19T12:17:00;2.38;;;1.02;;
82328;SDS011;72321;56.908;60.608;2023-09-19T12:19:27;1.95;;;1.00;;
82328;SDS011;72321;56.908;60.608;2023-09-19T12:21:54;9.43;;;3.90;;
82328;SDS011;72321;56.908;60.608;2023-09-19T12:24:20;3.67;;;1.13;;
82328;SDS011;72321;56.908;60.608;2023-09-19T12:26:46;4.30;;;1.52;;
82328;SDS011;72321;56.908;60.608;2023-09-19T12:29:20;4.28;;;1.92;;
82328;SDS011;72321;56.908;60.608;2023-09-19T12:34:26;4.20;;;2.47;;
82328;SDS011;72321;56.908;60.608;2023-09-19T12:37:15;3.22;;;1.75;;
82328;SDS011;72321;56.908;60.608;2023-09-19T12:39:51;4.95;;;1.88;;
82328;SDS011;72321;56.908;60.608;2023-09-19T12:42:23;2.67;;;1.52;;
82328;SDS011;72321;56.908;60.608;2023-09-19T12:44:50;1.73;;;0.93;;
82328;SDS011;72321;56.908;60.608;2023-09-19T12:47:22;4.18;;;0.90;;
82328;SDS011;72321;56.908;60.608;2023-09-19T12:52:55;3.38;;;1.13;;
82328;SDS011;72321;56.908;60.608;2023-09-19T12:55:25;3.65;;;1.42;;
82328;SDS011;72321;56.908;60.608;2023-09-19T13:00:39;1.90;;;1.10;;
82328;SDS011;72321;56.908;60.608;2023-09-19T13:03:10;3.13;;;1.45;;
82328;SDS011;72321;56.908;60.608;2023-09-19T13:05:48;4.47;;;2.10;;
82328;SDS011;72321;56.908;60.608;2023-09-19T13:08:31;4.30;;;1.52;;
82328;SDS011;72321;56.908;60.608;2023-09-19T13:11:01;2.50;;;0.88;;
82328;SDS011;72321;56.908;60.608;2023-09-19T13:13:27;3.10;;;0.88;;
82328;SDS011;72321;56.908;60.608;2023-09-19T13:15:53;2.28;;;1.20;;
82328;SDS011;72321;56.908;60.608;2023-09-19T13:18:18;3.35;;;0.70;;
82328;SDS011;72321;56.908;60.608;2023-09-19T13:21:04;1.33;;;0.50;;
82328;SDS011;72321;56.908;60.608;2023-09-19T13:25:56;3.88;;;1.45;;
82328;SDS011;72321;56.908;60.608;2023-09-19T13:28:21;2.83;;;1.20;;
82328;SDS011;72321;56.908;60.608;2023-09-19T13:30:46;3.70;;;0.85;;
82328;SDS011;72321;56.908;60.608;2023-09-19T13:33:13;1.88;;;0.60;;
82328;SDS011;72321;56.908;60.608;2023-09-19T13:35:45;2.88;;;0.90;;
82328;SDS011;72321;56.908;60.608;2023-09-19T13:38:11;3.65;;;0.80;;
82328;SDS011;72321;56.908;60.608;2023-09-19T13:40:38;2.78;;;0.65;;
82328;SDS011;72321;56.908;60.608;2023-09-19T13:43:06;1.80;;;0.88;;
82328;SDS011;72321;56.908;60.608;2023-09-19T13:45:32;2.95;;;0.95;;
82328;SDS011;72321;56.908;60.608;2023-09-19T13:47:57;2.55;;;0.52;;
82328;SDS011;72321;56.908;60.608;2023-09-19T13:50:24;3.80;;;1.40;;
82328;SDS011;72321;56.908;60.608;2023-09-19T13:52:50;2.83;;;1.20;;
82328;SDS011;72321;56.908;60.608;2023-09-19T13:55:19;5.10;;;0.82;;
82328;SDS011;72321;56.908;60.608;2023-09-19T13:57:46;7.18;;;1.35;;
82328;SDS011;72321;56.908;60.608;2023-09-19T14:00:12;10.45;;;1.30;;
82328;SDS011;72321;56.908;60.608;2023-09-19T14:02:41;3.97;;;1.13;;
82328;SDS011;72321;56.908;60.608;2023-09-19T14:05:08;3.78;;;1.17;;
82328;SDS011;72321;56.908;60.608;2023-09-19T14:07:33;13.27;;;1.67;;
82328;SDS011;72321;56.908;60.608;2023-09-19T14:09:58;9.80;;;3.08;;
82328;SDS011;72321;56.908;60.608;2023-09-19T14:12:24;4.10;;;1.93;;
82328;SDS011;72321;56.908;60.608;2023-09-19T14:14:49;4.97;;;2.03;;
82328;SDS011;72321;56.908;60.608;2023-09-19T14:17:16;5.45;;;1.88;;
82328;SDS011;72321;56.908;60.608;2023-09-19T14:19:41;6.18;;;2.65;;
82328;SDS011;72321;56.908;60.608;2023-09-19T14:22:09;6.15;;;2.17;;
82328;SDS011;72321;56.908;60.608;2023-09-19T14:24:35;4.07;;;1.90;;
82328;SDS011;72321;56.908;60.608;2023-09-19T14:27:01;5.00;;;1.90;;
82328;SDS011;72321;56.908;60.608;2023-09-19T14:29:29;8.00;;;2.00;;
82328;SDS011;72321;56.908;60.608;2023-09-19T14:31:54;3.85;;;1.30;;
82328;SDS011;72321;56.908;60.608;2023-09-19T14:34:20;4.90;;;1.52;;
82328;SDS011;72321;56.908;60.608;2023-09-19T14:36:45;5.85;;;1.00;;
82328;SDS011;72321;56.908;60.608;2023-09-19T14:39:10;3.25;;;1.25;;
82328;SDS011;72321;56.908;60.608;2023-09-19T14:41:36;3.05;;;1.25;;
82328;SDS011;72321;56.908;60.608;2023-09-19T14:44:04;2.75;;;1.15;;
82328;SDS011;72321;56.908;60.608;2023-09-19T14:46:30;2.58;;;1.00;;
82328;SDS011;72321;56.908;60.608;2023-09-19T14:48:56;15.57;;;1.55;;
82328;SDS011;72321;56.908;60.608;2023-09-19T14:51:24;5.60;;;1.40;;
82328;SDS011;72321;56.908;60.608;2023-09-19T14:53:50;1.85;;;0.82;;
82328;SDS011;72321;56.908;60.608;2023-09-19T14:56:15;3.15;;;1.02;;
82328;SDS011;72321;56.908;60.608;2023-09-19T14:58:45;2.42;;;1.02;;
82328;SDS011;72321;56.908;60.608;2023-09-19T15:01:12;3.28;;;1.15;;
82328;SDS011;72321;56.908;60.608;2023-09-19T15:03:39;2.97;;;1.00;;
82328;SDS011;72321;56.908;60.608;2023-09-19T15:06:05;3.92;;;1.38;;
82328;SDS011;72321;56.908;60.608;2023-09-19T15:08:31;4.03;;;0.90;;
82328;SDS011;72321;56.908;60.608;2023-09-19T15:13:24;3.53;;;0.98;;
82328;SDS011;72321;56.908;60.608;2023-09-19T15:15:58;1.55;;;0.73;;
82328;SDS011;72321;56.908;60.608;2023-09-19T15:18:23;5.20;;;1.00;;
82328;SDS011;72321;56.908;60.608;2023-09-19T15:20:49;2.40;;;1.17;;
82328;SDS011;72321;56.908;60.608;2023-09-19T15:23:14;1.92;;;0.90;;
82328;SDS011;72321;56.908;60.608;2023-09-19T15:25:47;2.63;;;1.17;;
82328;SDS011;72321;56.908;60.608;2023-09-19T15:28:12;3.42;;;0.82;;
82328;SDS011;72321;56.908;60.608;2023-09-19T15:30:38;2.42;;;0.90;;
82328;SDS011;72321;56.908;60.608;2023-09-19T15:33:03;2.47;;;0.82;;